Time;durP1;ratioP1;P1;durP2;ratioP2;P2;SDS_P1;SDS_P2;PMS_P1;PMS_P2;Temp;Humidity;BMP_temperature;BMP_pressure;BME280_temperature;BME280_humidity;BME280_pressure;Samples;Min_cycle;Max_cycle;Signal;HPM_P1;HPM_P2
2021/07/26 00:01:44;;;;;;;11.10;7.47;;;;;;;;;;10256462;28;20315;-71
2021/07/26 00:06:47;;;;;;;10.73;7.37;;;;;;;;;;10244873;28;20216;-71
2021/07/26 00:11:49;;;;;;;11.83;7.03;;;;;;;;;;10248308;28;20229;-72
2021/07/26 00:16:53;;;;;;;12.47;7.53;;;;;;;;;;10242498;28;20220;-73
2021/07/26 00:21:56;;;;;;;11.73;7.03;;;;;;;;;;10238843;28;20202;-73
2021/07/26 00:26:58;;;;;;;10.63;6.90;;;;;;;;;;10250961;28;20304;-72
2021/07/26 00:32:02;;;;;;;10.60;6.73;;;;;;;;;;10248797;28;20324;-73
2021/07/26 00:37:05;;;;;;;10.93;6.60;;;;;;;;;;10237484;28;20311;-71
2021/07/26 00:42:08;;;;;;;11.47;6.80;;;;;;;;;;10247216;28;20336;-71
2021/07/26 00:47:12;;;;;;;10.57;6.43;;;;;;;;;;10250658;28;20300;-70
2021/07/26 00:52:15;;;;;;;10.07;6.33;;;;;;;;;;10247954;28;20244;-72
2021/07/26 00:57:17;;;;;;;10.70;6.70;;;;;;;;;;10249401;28;20243;-70
2021/07/26 01:02:21;;;;;;;10.90;6.33;;;;;;;;;;10245016;28;20195;-71
2021/07/26 01:07:24;;;;;;;10.77;6.57;;;;;;;;;;10243618;28;20223;-71
2021/07/26 01:12:27;;;;;;;10.60;6.70;;;;;;;;;;10241067;28;20279;-71
2021/07/26 01:17:55;;;;;;;9.70;6.33;;;;;;;;;;10247572;28;20530;-71
2021/07/26 01:22:59;;;;;;;10.00;6.10;;;;;;;;;;10229347;28;20292;-71
2021/07/26 01:28:02;;;;;;;9.73;6.10;;;;;;;;;;10238718;28;20201;-71
2021/07/26 01:33:07;;;;;;;9.67;5.77;;;;;;;;;;10237319;28;20228;-71
2021/07/26 01:38:11;;;;;;;10.70;5.80;;;;;;;;;;10252589;28;20223;-70
2021/07/26 01:43:14;;;;;;;9.77;6.13;;;;;;;;;;10252948;28;20675;-71
2021/07/26 01:48:20;;;;;;;8.90;5.83;;;;;;;;;;10265771;28;20283;-70
2021/07/26 01:53:24;;;;;;;10.97;6.37;;;;;;;;;;10263358;28;20216;-70
2021/07/26 01:58:28;;;;;;;10.30;6.40;;;;;;;;;;10256402;28;20275;-71
2021/07/26 02:03:31;;;;;;;10.37;6.43;;;;;;;;;;10248703;28;20362;-71
2021/07/26 02:08:35;;;;;;;8.93;5.60;;;;;;;;;;10248189;28;20196;-70
2021/07/26 02:13:37;;;;;;;9.53;5.90;;;;;;;;;;10258950;28;20255;-71
2021/07/26 02:18:40;;;;;;;9.67;5.93;;;;;;;;;;10260341;28;20200;-71
2021/07/26 02:23:44;;;;;;;10.50;5.90;;;;;;;;;;10241852;28;20224;-71
2021/07/26 02:28:47;;;;;;;9.27;5.30;;;;;;;;;;10242743;28;20196;-69
2021/07/26 02:33:49;;;;;;;9.83;5.40;;;;;;;;;;10241495;28;20221;-71
2021/07/26 02:38:53;;;;;;;8.70;5.60;;;;;;;;;;10245341;28;20296;-71
2021/07/26 02:43:55;;;;;;;9.87;5.67;;;;;;;;;;10257012;28;20240;-71
2021/07/26 02:48:58;;;;;;;9.30;5.60;;;;;;;;;;10257237;28;20283;-71
2021/07/26 02:54:02;;;;;;;9.20;5.30;;;;;;;;;;10251661;28;20255;-70
2021/07/26 02:59:04;;;;;;;8.93;4.60;;;;;;;;;;10255022;28;20208;-71
2021/07/26 03:04:08;;;;;;;8.00;4.67;;;;;;;;;;10246235;28;20591;-71
2021/07/26 03:09:12;;;;;;;10.17;5.20;;;;;;;;;;10247537;28;20576;-71
2021/07/26 03:14:14;;;;;;;9.43;4.53;;;;;;;;;;10243747;28;20688;-71
2021/07/26 03:19:17;;;;;;;7.40;4.03;;;;;;;;;;10254179;28;20283;-71
2021/07/26 03:24:21;;;;;;;8.27;4.53;;;;;;;;;;10236014;28;20234;-70
2021/07/26 03:29:23;;;;;;;8.50;4.40;;;;;;;;;;10254928;28;20207;-70
2021/07/26 03:34:26;;;;;;;9.13;4.07;;;;;;;;;;10248626;28;20306;-70
2021/07/26 03:39:30;;;;;;;8.73;4.33;;;;;;;;;;10255090;28;20738;-70
2021/07/26 03:44:33;;;;;;;7.63;4.13;;;;;;;;;;10246425;28;20216;-70
2021/07/26 03:49:35;;;;;;;8.90;4.37;;;;;;;;;;10251026;28;20585;-72
2021/07/26 03:54:39;;;;;;;7.90;4.50;;;;;;;;;;10258317;28;20223;-71
2021/07/26 03:59:41;;;;;;;7.97;4.47;;;;;;;;;;10249139;28;20208;-70
2021/07/26 04:04:44;;;;;;;8.27;4.73;;;;;;;;;;10247257;28;20267;-71
2021/07/26 04:09:53;;;;;;;7.40;4.50;;;;;;;;;;10241334;28;20941;-71
2021/07/26 04:14:55;;;;;;;8.17;4.30;;;;;;;;;;10248895;28;20259;-70
2021/07/26 04:20:18;;;;;;;7.30;4.00;;;;;;;;;;10238292;28;20271;-71
2021/07/26 04:25:22;;;;;;;7.43;4.00;;;;;;;;;;10250945;28;20240;-72
2021/07/26 04:30:24;;;;;;;9.10;4.50;;;;;;;;;;10254722;28;20198;-73
2021/07/26 04:35:27;;;;;;;7.00;3.80;;;;;;;;;;10240567;28;20308;-72
2021/07/26 04:40:31;;;;;;;6.20;3.83;;;;;;;;;;10249008;28;20204;-72
2021/07/26 04:45:33;;;;;;;7.47;4.07;;;;;;;;;;10245463;28;20212;-74
2021/07/26 04:50:36;;;;;;;8.90;4.10;;;;;;;;;;10247261;28;20215;-73
2021/07/26 04:55:40;;;;;;;8.10;4.17;;;;;;;;;;10241527;28;20251;-74
2021/07/26 05:00:42;;;;;;;8.40;4.43;;;;;;;;;;10248680;28;20197;-72
2021/07/26 05:05:45;;;;;;;7.47;4.13;;;;;;;;;;10240396;28;20656;-72
2021/07/26 05:10:49;;;;;;;8.20;4.23;;;;;;;;;;10242463;28;20196;-71
2021/07/26 05:15:52;;;;;;;9.23;4.70;;;;;;;;;;10260366;28;20223;-72
2021/07/26 05:20:54;;;;;;;9.00;4.30;;;;;;;;;;10244544;28;20208;-72
2021/07/26 05:25:58;;;;;;;7.77;4.30;;;;;;;;;;10245018;28;20247;-72
2021/07/26 05:31:00;;;;;;;8.37;4.37;;;;;;;;;;10238421;28;20585;-72
2021/07/26 05:36:03;;;;;;;7.93;4.00;;;;;;;;;;10247926;28;20235;-72
2021/07/26 05:41:09;;;;;;;7.63;4.03;;;;;;;;;;10245836;28;20279;-73
2021/07/26 05:46:11;;;;;;;7.70;3.93;;;;;;;;;;10246200;28;20215;-72
2021/07/26 05:51:14;;;;;;;9.00;3.90;;;;;;;;;;10238674;28;20337;-71
2021/07/26 05:56:18;;;;;;;8.03;4.20;;;;;;;;;;10245512;28;20246;-73
2021/07/26 06:01:35;;;;;;;8.70;4.50;;;;;;;;;;10242270;28;20283;-72
2021/07/26 06:06:40;;;;;;;9.23;4.10;;;;;;;;;;10236797;28;20723;-71
2021/07/26 06:11:45;;;;;;;8.53;3.93;;;;;;;;;;10256835;28;20252;-73
2021/07/26 06:16:48;;;;;;;8.50;4.00;;;;;;;;;;10237484;28;20737;-71
2021/07/26 06:21:51;;;;;;;7.87;4.00;;;;;;;;;;10240704;28;20204;-71
2021/07/26 06:26:56;;;;;;;7.73;4.10;;;;;;;;;;10244198;28;20599;-72
2021/07/26 06:31:59;;;;;;;7.23;4.00;;;;;;;;;;10235565;28;20228;-74
2021/07/26 06:37:01;;;;;;;9.23;4.40;;;;;;;;;;10241233;28;20227;-74
2021/07/26 06:42:05;;;;;;;9.00;4.13;;;;;;;;;;10254376;28;20712;-75
2021/07/26 06:47:08;;;;;;;8.60;4.28;;;;;;;;;;10252561;28;20299;-74
2021/07/26 06:52:11;;;;;;;9.63;4.72;;;;;;;;;;10238204;28;20197;-74
2021/07/26 06:57:15;;;;;;;8.65;4.13;;;;;;;;;;10246313;28;20313;-74
2021/07/26 07:02:18;;;;;;;11.38;4.45;;;;;;;;;;10247458;28;20287;-74
2021/07/26 07:07:20;;;;;;;8.38;4.05;;;;;;;;;;10248204;28;20358;-75
2021/07/26 07:12:24;;;;;;;7.53;3.97;;;;;;;;;;10254219;28;20714;-74
2021/07/26 07:17:28;;;;;;;8.48;4.00;;;;;;;;;;10245032;28;20683;-76
2021/07/26 07:22:30;;;;;;;7.22;3.90;;;;;;;;;;10241523;28;20222;-77
2021/07/26 07:27:34;;;;;;;7.13;4.10;;;;;;;;;;10246529;28;20222;-75
2021/07/26 07:32:47;;;;;;;6.05;3.72;;;;;;;;;;10254320;28;20289;-74
2021/07/26 07:37:52;;;;;;;8.43;3.58;;;;;;;;;;10246093;28;20307;-74
2021/07/26 07:42:55;;;;;;;7.20;4.38;;;;;;;;;;10238502;28;20228;-73
2021/07/26 07:47:58;;;;;;;6.43;3.55;;;;;;;;;;10251418;28;20230;-75
2021/07/26 07:53:03;;;;;;;7.88;3.85;;;;;;;;;;10244095;28;20692;-76
2021/07/26 07:58:10;;;;;;;9.10;4.10;;;;;;;;;;10241179;28;20197;-75
2021/07/26 08:03:12;;;;;;;9.57;4.22;;;;;;;;;;10245579;28;20565;-75
2021/07/26 08:08:15;;;;;;;8.38;4.18;;;;;;;;;;10246560;28;20254;-74
2021/07/26 08:13:23;;;;;;;7.10;3.40;;;;;;;;;;10239092;28;20669;-74
2021/07/26 08:18:25;;;;;;;8.38;3.58;;;;;;;;;;10236810;28;20195;-74
2021/07/26 08:23:28;;;;;;;6.35;3.80;;;;;;;;;;10239661;28;20279;-73
2021/07/26 08:28:32;;;;;;;8.27;4.10;;;;;;;;;;10248470;28;20252;-73
2021/07/26 08:33:34;;;;;;;8.75;4.10;;;;;;;;;;10251114;28;20279;-73
2021/07/26 08:38:37;;;;;;;8.95;3.85;;;;;;;;;;10243085;28;20665;-73
2021/07/26 08:43:41;;;;;;;9.40;4.50;;;;;;;;;;10242243;28;20275;-74
2021/07/26 08:48:44;;;;;;;6.38;3.55;;;;;;;;;;10245522;28;20201;-73
2021/07/26 08:53:49;;;;;;;9.23;4.50;;;;;;;;;;10242255;28;20293;-78
2021/07/26 08:58:53;;;;;;;8.13;5.28;;;;;;;;;;10238413;28;20188;-73
2021/07/26 09:03:57;;;;;;;8.25;4.78;;;;;;;;;;10246929;28;20227;-73
2021/07/26 09:09:00;;;;;;;7.60;4.47;;;;;;;;;;10253901;28;20204;-74
2021/07/26 09:14:04;;;;;;;7.68;4.50;;;;;;;;;;10258072;28;20554;-75
2021/07/26 09:19:08;;;;;;;7.85;4.80;;;;;;;;;;10237322;28;20588;-74
2021/07/26 09:24:11;;;;;;;8.05;4.55;;;;;;;;;;10240133;28;20212;-75
2021/07/26 09:29:27;;;;;;;7.80;4.13;;;;;;;;;;10241112;28;20280;-75
2021/07/26 09:34:30;;;;;;;10.55;4.65;;;;;;;;;;10247471;28;20310;-75
2021/07/26 09:39:33;;;;;;;7.43;4.20;;;;;;;;;;10244181;28;20192;-76
2021/07/26 09:44:37;;;;;;;8.38;4.43;;;;;;;;;;10240086;28;20220;-76
2021/07/26 09:49:39;;;;;;;6.57;4.50;;;;;;;;;;10243049;28;20280;-76
2021/07/26 09:54:43;;;;;;;10.18;5.40;;;;;;;;;;10239264;28;20576;-75
2021/07/26 09:59:48;;;;;;;8.68;4.32;;;;;;;;;;10238409;28;20205;-74
2021/07/26 10:04:50;;;;;;;9.82;4.85;;;;;;;;;;10240425;28;20299;-75
2021/07/26 10:09:53;;;;;;;7.47;4.18;;;;;;;;;;10248934;28;20188;-76
2021/07/26 10:14:59;;;;;;;8.23;4.70;;;;;;;;;;10245455;28;20231;-75
2021/07/26 10:20:02;;;;;;;7.28;4.40;;;;;;;;;;10268203;28;20204;-75
2021/07/26 10:25:06;;;;;;;7.63;4.18;;;;;;;;;;10236107;28;20220;-76
2021/07/26 10:30:11;;;;;;;6.68;4.20;;;;;;;;;;10248969;28;20204;-75
2021/07/26 10:35:33;;;;;;;7.78;4.97;;;;;;;;;;10239007;28;20215;-76
2021/07/26 10:40:39;;;;;;;10.52;4.28;;;;;;;;;;10260616;28;20192;-76
2021/07/26 10:46:00;;;;;;;8.13;4.97;;;;;;;;;;10256241;28;20595;-75
2021/07/26 10:51:03;;;;;;;8.15;4.15;;;;;;;;;;10243472;28;20278;-77
2021/07/26 10:56:07;;;;;;;8.25;3.88;;;;;;;;;;10254345;28;20216;-77
2021/07/26 11:01:28;;;;;;;7.05;4.10;;;;;;;;;;10245777;28;20196;-77
2021/07/26 11:06:49;;;;;;;6.05;3.85;;;;;;;;;;10242359;28;20224;-75
2021/07/26 11:11:53;;;;;;;6.88;3.85;;;;;;;;;;10256094;28;20280;-74
2021/07/26 11:17:03;;;;;;;7.60;4.10;;;;;;;;;;10266126;28;20247;-76
2021/07/26 11:22:06;;;;;;;5.80;3.63;;;;;;;;;;10260695;28;20223;-77
2021/07/26 11:27:11;;;;;;;7.68;3.60;;;;;;;;;;10244986;28;20240;-76
2021/07/26 11:32:20;;;;;;;7.03;4.00;;;;;;;;;;10249872;28;20245;-76
2021/07/26 11:37:29;;;;;;;7.60;4.22;;;;;;;;;;10251401;28;20220;-76
2021/07/26 11:42:34;;;;;;;8.50;3.78;;;;;;;;;;10250787;28;20183;-76
2021/07/26 11:47:41;;;;;;;7.28;4.50;;;;;;;;;;10249676;28;20271;-76
2021/07/26 11:52:51;;;;;;;6.97;4.10;;;;;;;;;;10244633;28;20272;-77
2021/07/26 11:57:55;;;;;;;7.47;3.92;;;;;;;;;;10246434;28;20251;-77
2021/07/26 12:02:58;;;;;;;7.32;4.45;;;;;;;;;;10237306;28;20197;-77
2021/07/26 12:08:02;;;;;;;6.95;3.78;;;;;;;;;;10256961;28;20240;-77
2021/07/26 12:13:09;;;;;;;6.53;3.80;;;;;;;;;;10258313;28;20503;-77
2021/07/26 12:18:14;;;;;;;6.47;3.92;;;;;;;;;;10258357;28;20404;-77
2021/07/26 12:23:18;;;;;;;7.18;4.00;;;;;;;;;;10247105;28;20224;-77
2021/07/26 12:28:40;;;;;;;6.35;3.80;;;;;;;;;;10244822;28;20204;-77
2021/07/26 12:33:43;;;;;;;6.25;4.13;;;;;;;;;;10239518;28;20221;-75
2021/07/26 12:39:01;;;;;;;7.05;3.88;;;;;;;;;;10251124;28;20193;-74
2021/07/26 12:44:12;;;;;;;7.07;4.22;;;;;;;;;;10255586;28;20228;-77
2021/07/26 12:49:15;;;;;;;8.52;3.88;;;;;;;;;;10215137;28;20197;-77
2021/07/26 12:54:17;;;;;;;7.47;3.78;;;;;;;;;;10245637;28;20286;-76
2021/07/26 12:59:21;;;;;;;8.15;4.13;;;;;;;;;;10236483;28;20601;-77
2021/07/26 13:04:24;;;;;;;7.22;3.95;;;;;;;;;;10234925;28;20292;-77
2021/07/26 13:09:26;;;;;;;7.10;4.50;;;;;;;;;;10242092;28;20193;-76
2021/07/26 13:14:30;;;;;;;7.18;4.13;;;;;;;;;;10243125;28;20325;-77
2021/07/26 13:19:33;;;;;;;6.10;3.85;;;;;;;;;;10244769;28;20588;-77
2021/07/26 13:24:36;;;;;;;6.93;4.32;;;;;;;;;;10255439;28;20220;-76
2021/07/26 13:29:40;;;;;;;6.18;4.22;;;;;;;;;;10229773;28;20213;-75
2021/07/26 13:34:58;;;;;;;6.32;3.63;;;;;;;;;;10230194;28;20215;-76
2021/07/26 13:40:00;;;;;;;6.30;3.65;;;;;;;;;;10241003;28;20200;-76
2021/07/26 13:45:04;;;;;;;8.35;4.35;;;;;;;;;;10251680;28;20883;-76
2021/07/26 13:50:08;;;;;;;8.65;3.78;;;;;;;;;;10253973;28;20252;-76
2021/07/26 13:55:10;;;;;;;6.53;3.80;;;;;;;;;;10269685;28;20747;-77
2021/07/26 14:00:17;;;;;;;6.28;3.72;;;;;;;;;;10247799;28;20585;-75
2021/07/26 14:05:20;;;;;;;8.10;3.88;;;;;;;;;;10242512;28;20315;-75
2021/07/26 14:10:22;;;;;;;7.30;4.00;;;;;;;;;;10259603;28;20193;-74
2021/07/26 14:15:29;;;;;;;7.50;4.40;;;;;;;;;;10239399;28;20669;-76
2021/07/26 14:20:32;;;;;;;6.32;3.50;;;;;;;;;;10251202;28;20201;-75
2021/07/26 14:25:35;;;;;;;7.30;3.50;;;;;;;;;;10246975;28;20675;-75
2021/07/26 14:30:39;;;;;;;8.30;3.88;;;;;;;;;;10250039;28;20208;-77
2021/07/26 14:35:43;;;;;;;6.25;3.60;;;;;;;;;;10249464;28;20690;-76
2021/07/26 14:40:46;;;;;;;6.50;3.40;;;;;;;;;;10251056;28;20280;-75
2021/07/26 14:45:50;;;;;;;5.72;3.47;;;;;;;;;;10270994;28;20288;-75
2021/07/26 14:50:53;;;;;;;6.45;3.80;;;;;;;;;;10261794;28;20203;-77
2021/07/26 14:55:55;;;;;;;6.80;3.47;;;;;;;;;;10256101;28;20231;-76
2021/07/26 15:01:00;;;;;;;7.57;3.90;;;;;;;;;;10245962;28;20347;-75
2021/07/26 15:06:03;;;;;;;7.57;4.07;;;;;;;;;;10241641;28;20220;-76
2021/07/26 15:11:05;;;;;;;9.07;4.05;;;;;;;;;;10247463;28;20243;-76
2021/07/26 15:16:11;;;;;;;7.47;3.60;;;;;;;;;;10248701;28;20331;-76
2021/07/26 15:21:13;;;;;;;8.32;3.83;;;;;;;;;;10247050;28;20200;-76
2021/07/26 15:26:16;;;;;;;6.95;3.80;;;;;;;;;;10237772;28;20220;-76
2021/07/26 15:31:20;;;;;;;7.65;3.90;;;;;;;;;;10247951;28;20713;-76
2021/07/26 15:36:23;;;;;;;8.18;3.80;;;;;;;;;;10234182;28;20220;-76
2021/07/26 15:41:25;;;;;;;7.20;3.83;;;;;;;;;;10236779;28;20202;-76
2021/07/26 15:46:31;;;;;;;7.13;4.40;;;;;;;;;;10246174;28;20632;-75
2021/07/26 15:51:34;;;;;;;8.95;3.80;;;;;;;;;;10242239;28;20255;-75
2021/07/26 15:56:40;;;;;;;8.52;5.40;;;;;;;;;;10249705;28;20220;-74
2021/07/26 16:01:44;;;;;;;7.07;3.80;;;;;;;;;;10248501;28;20192;-75
2021/07/26 16:06:47;;;;;;;8.18;4.35;;;;;;;;;;10261765;28;20216;-73
2021/07/26 16:11:49;;;;;;;6.72;3.53;;;;;;;;;;10247597;28;20699;-74
2021/07/26 16:16:53;;;;;;;6.70;3.90;;;;;;;;;;10262266;28;20668;-74
2021/07/26 16:21:57;;;;;;;7.10;3.58;;;;;;;;;;10259394;28;20625;-74
2021/07/26 16:26:59;;;;;;;7.60;4.50;;;;;;;;;;10245911;28;20214;-74
2021/07/26 16:32:04;;;;;;;6.72;3.97;;;;;;;;;;10242044;28;20197;-74
2021/07/26 16:37:07;;;;;;;10.95;6.45;;;;;;;;;;10239813;28;20302;-73
2021/07/26 16:42:10;;;;;;;8.07;4.10;;;;;;;;;;10241672;28;20227;-75
2021/07/26 16:47:14;;;;;;;20.65;11.85;;;;;;;;;;10248510;28;20211;-75
2021/07/26 16:52:16;;;;;;;18.50;11.68;;;;;;;;;;10237430;28;20248;-74
2021/07/26 16:57:19;;;;;;;8.68;4.05;;;;;;;;;;10248233;28;20307;-74
2021/07/26 17:02:23;;;;;;;8.60;4.55;;;;;;;;;;10250596;28;20653;-75
2021/07/26 17:07:26;;;;;;;12.25;4.65;;;;;;;;;;10223497;28;20212;-75
2021/07/26 17:12:29;;;;;;;11.10;4.85;;;;;;;;;;10238704;28;20284;-75
2021/07/26 17:17:33;;;;;;;9.15;4.72;;;;;;;;;;10235969;28;20227;-74
2021/07/26 17:22:37;;;;;;;10.90;5.57;;;;;;;;;;10242707;28;20205;-76
2021/07/26 17:27:40;;;;;;;14.95;9.18;;;;;;;;;;10237095;28;20236;-75
2021/07/26 17:32:44;;;;;;;9.38;5.78;;;;;;;;;;10257478;28;20209;-74
2021/07/26 17:37:46;;;;;;;9.55;5.40;;;;;;;;;;10239338;28;20940;-75
2021/07/26 17:42:49;;;;;;;10.70;5.68;;;;;;;;;;10243815;28;20193;-75
2021/07/26 17:47:53;;;;;;;11.10;5.97;;;;;;;;;;10236378;28;20787;-75
2021/07/26 17:52:55;;;;;;;9.82;5.88;;;;;;;;;;10242565;28;20243;-75
2021/07/26 17:57:58;;;;;;;9.10;4.22;;;;;;;;;;10241001;28;20535;-75
2021/07/26 18:03:02;;;;;;;7.00;3.40;;;;;;;;;;10267408;28;20205;-75
2021/07/26 18:08:10;;;;;;;4.88;2.60;;;;;;;;;;10244404;28;20216;-73
2021/07/26 18:13:13;;;;;;;5.30;2.53;;;;;;;;;;10239887;28;20212;-75
2021/07/26 18:18:17;;;;;;;5.10;2.50;;;;;;;;;;10259405;28;20231;-74
2021/07/26 18:23:19;;;;;;;6.13;2.60;;;;;;;;;;10260284;28;20263;-75
2021/07/26 18:28:22;;;;;;;6.87;3.57;;;;;;;;;;10266223;28;20271;-75
2021/07/26 18:33:29;;;;;;;4.93;2.50;;;;;;;;;;10268377;28;20208;-75
2021/07/26 18:38:32;;;;;;;6.27;2.90;;;;;;;;;;10248446;28;20450;-77
2021/07/26 18:43:35;;;;;;;4.03;2.30;;;;;;;;;;10264403;28;20575;-77
2021/07/26 18:48:44;;;;;;;11.05;7.07;;;;;;;;;;10267630;28;20203;-76
2021/07/26 18:53:47;;;;;;;7.03;2.80;;;;;;;;;;10256797;28;20222;-76
2021/07/26 18:58:49;;;;;;;7.27;2.80;;;;;;;;;;10253561;28;20315;-76
2021/07/26 19:03:53;;;;;;;5.23;2.50;;;;;;;;;;10242478;28;20216;-74
2021/07/26 19:08:56;;;;;;;4.43;2.20;;;;;;;;;;10244136;28;20216;-74
2021/07/26 19:13:59;;;;;;;12.43;7.10;;;;;;;;;;10248656;28;20255;-76
2021/07/26 19:19:03;;;;;;;4.80;2.20;;;;;;;;;;10256403;28;20684;-74
2021/07/26 19:24:07;;;;;;;5.83;2.63;;;;;;;;;;10259120;28;20212;-74
2021/07/26 19:29:09;;;;;;;5.37;2.70;;;;;;;;;;10260563;28;20208;-74
2021/07/26 19:34:13;;;;;;;7.07;3.67;;;;;;;;;;10247163;28;20458;-75
2021/07/26 19:39:16;;;;;;;6.60;3.17;;;;;;;;;;10253847;28;20759;-75
2021/07/26 19:44:19;;;;;;;6.87;3.50;;;;;;;;;;10251324;28;20295;-76
2021/07/26 19:49:23;;;;;;;5.33;2.80;;;;;;;;;;10257869;28;20200;-77
2021/07/26 19:54:26;;;;;;;7.33;3.50;;;;;;;;;;10242488;28;20319;-76
2021/07/26 19:59:28;;;;;;;6.53;2.83;;;;;;;;;;10253521;28;20251;-76
2021/07/26 20:04:33;;;;;;;7.50;3.07;;;;;;;;;;10246352;28;20283;-76
2021/07/26 20:09:36;;;;;;;8.70;4.57;;;;;;;;;;10251471;28;20231;-74
2021/07/26 20:14:39;;;;;;;8.70;3.63;;;;;;;;;;10259635;28;20636;-75
2021/07/26 20:19:43;;;;;;;6.07;3.07;;;;;;;;;;10242097;28;20220;-74
2021/07/26 20:24:48;;;;;;;7.97;4.28;;;;;;;;;;10248899;28;20601;-75
2021/07/26 20:29:51;;;;;;;6.33;3.13;;;;;;;;;;10252835;28;20354;-75
2021/07/26 20:34:55;;;;;;;7.67;3.53;;;;;;;;;;10245834;28;20216;-74
2021/07/26 20:39:57;;;;;;;5.97;3.07;;;;;;;;;;10255189;28;20251;-76
2021/07/26 20:45:00;;;;;;;5.83;3.17;;;;;;;;;;10255075;28;20222;-75
2021/07/26 20:50:04;;;;;;;8.03;3.20;;;;;;;;;;10244209;28;20263;-75
2021/07/26 20:55:07;;;;;;;7.23;3.10;;;;;;;;;;10248431;28;20212;-74
2021/07/26 21:00:10;;;;;;;6.20;3.00;;;;;;;;;;10270703;28;20238;-75
2021/07/26 21:05:15;;;;;;;6.40;2.77;;;;;;;;;;10275025;28;20272;-77
2021/07/26 21:10:17;;;;;;;7.57;3.80;;;;;;;;;;10249036;28;20196;-76
2021/07/26 21:15:27;;;;;;;6.33;3.20;;;;;;;;;;10254519;28;20224;-76
2021/07/26 21:20:33;;;;;;;8.97;3.10;;;;;;;;;;10240805;28;20232;-76
2021/07/26 21:25:35;;;;;;;7.43;3.83;;;;;;;;;;10245599;28;20590;-77
2021/07/26 21:30:38;;;;;;;7.57;3.37;;;;;;;;;;10246387;28;20829;-75
2021/07/26 21:35:42;;;;;;;7.80;3.80;;;;;;;;;;10241973;28;20919;-75
2021/07/26 21:40:44;;;;;;;7.07;2.70;;;;;;;;;;10250918;28;20286;-76
2021/07/26 21:45:47;;;;;;;8.87;3.97;;;;;;;;;;10249021;28;20294;-75
2021/07/26 21:50:51;;;;;;;7.07;3.50;;;;;;;;;;10237345;28;20278;-76
2021/07/26 21:55:54;;;;;;;8.90;4.37;;;;;;;;;;10239396;28;20232;-75
2021/07/26 22:00:57;;;;;;;8.40;4.23;;;;;;;;;;10244430;28;20231;-75
2021/07/26 22:06:01;;;;;;;8.37;4.10;;;;;;;;;;10251576;28;20223;-76
2021/07/26 22:11:03;;;;;;;9.23;4.60;;;;;;;;;;10248841;28;20842;-76
2021/07/26 22:16:06;;;;;;;9.43;4.13;;;;;;;;;;10251309;28;20254;-76
2021/07/26 22:21:10;;;;;;;7.50;4.00;;;;;;;;;;10250545;28;20540;-77
2021/07/26 22:26:13;;;;;;;9.60;5.10;;;;;;;;;;10261871;28;20225;-77
2021/07/26 22:31:15;;;;;;;6.97;3.93;;;;;;;;;;10248250;28;20271;-76
2021/07/26 22:36:19;;;;;;;8.20;3.87;;;;;;;;;;10245784;28;20279;-77
2021/07/26 22:41:21;;;;;;;9.10;4.10;;;;;;;;;;10250636;28;20644;-73
2021/07/26 22:46:24;;;;;;;7.47;3.90;;;;;;;;;;10249808;28;20325;-76
2021/07/26 22:51:28;;;;;;;9.03;4.10;;;;;;;;;;10243483;28;20274;-77
2021/07/26 22:56:31;;;;;;;9.37;4.50;;;;;;;;;;10256901;28;20299;-77
2021/07/26 23:01:33;;;;;;;7.10;3.73;;;;;;;;;;10247912;28;20293;-75
2021/07/26 23:06:37;;;;;;;9.00;4.03;;;;;;;;;;10246050;28;20303;-77
2021/07/26 23:11:40;;;;;;;8.67;4.00;;;;;;;;;;10258092;28;20216;-76
2021/07/26 23:16:42;;;;;;;7.20;3.70;;;;;;;;;;10246392;28;20220;-76
2021/07/26 23:21:47;;;;;;;8.63;3.60;;;;;;;;;;10249772;28;20695;-76
2021/07/26 23:26:49;;;;;;;7.80;3.60;;;;;;;;;;10245992;28;20263;-76
2021/07/26 23:31:52;;;;;;;7.37;4.27;;;;;;;;;;10248756;28;20185;-77
2021/07/26 23:36:56;;;;;;;7.60;3.70;;;;;;;;;;10247055;28;20220;-76
2021/07/26 23:41:58;;;;;;;6.87;3.70;;;;;;;;;;10250201;28;20227;-76
2021/07/26 23:47:03;;;;;;;7.77;4.00;;;;;;;;;;10255899;28;20299;-76
2021/07/26 23:52:07;;;;;;;7.07;4.07;;;;;;;;;;10247724;28;20641;-77
2021/07/26 23:57:09;;;;;;;8.90;4.13;;;;;;;;;;10245589;28;20695;-76
